createdAt,value
2023-01-24T00:01:29.939Z,3.75
2023-01-24T00:03:57.759Z,3.74
2023-01-24T00:06:25.601Z,3.74
2023-01-24T00:08:54.704Z,3.73
2023-01-24T00:11:22.470Z,3.73
2023-01-24T00:13:50.271Z,3.71
2023-01-24T00:16:20.608Z,3.72
2023-01-24T00:18:50.966Z,3.71
2023-01-24T00:21:20.413Z,3.71
2023-01-24T00:23:50.246Z,3.71
2023-01-24T00:26:19.423Z,3.70
2023-01-24T00:28:48.558Z,3.71
2023-01-24T00:31:16.937Z,3.70
2023-01-24T00:33:44.903Z,3.69
2023-01-24T00:36:14.535Z,3.67
2023-01-24T00:38:42.431Z,3.68
2023-01-24T00:41:10.289Z,3.68
2023-01-24T00:43:38.319Z,3.67
2023-01-24T00:46:08.662Z,3.65
2023-01-24T00:48:36.710Z,3.64
2023-01-24T00:51:05.615Z,3.63
2023-01-24T00:53:35.051Z,3.63
2023-01-24T00:56:02.906Z,3.62
2023-01-24T00:58:30.767Z,3.61
2023-01-24T01:01:01.333Z,3.61
2023-01-24T01:03:29.436Z,3.61
2023-01-24T01:06:01.870Z,3.60
2023-01-24T01:08:29.740Z,3.63
2023-01-24T01:10:59.195Z,3.64
2023-01-24T01:13:27.291Z,3.65
2023-01-24T01:16:02.264Z,3.62
2023-01-24T01:18:30.399Z,3.61
2023-01-24T01:20:58.212Z,3.58
2023-01-24T01:23:26.091Z,3.59
2023-01-24T01:25:53.893Z,3.58
2023-01-24T01:28:23.091Z,3.56
2023-01-24T01:30:53.965Z,3.55
2023-01-24T01:33:21.821Z,3.54
2023-01-24T01:35:49.868Z,3.55
2023-01-24T01:38:18.249Z,3.52
2023-01-24T01:40:46.215Z,3.49
2023-01-24T01:43:16.029Z,3.50
2023-01-24T01:45:47.889Z,3.49
2023-01-24T01:48:25.083Z,3.50
2023-01-24T01:51:00.132Z,3.48
2023-01-24T01:53:32.110Z,3.48
2023-01-24T01:56:05.773Z,3.51
2023-01-24T01:58:35.042Z,3.48
2023-01-24T02:01:04.312Z,3.46
2023-01-24T02:03:41.410Z,3.47
2023-01-24T02:06:17.819Z,3.48
2023-01-24T02:08:46.985Z,3.48
2023-01-24T02:11:33.743Z,3.48
2023-01-24T02:14:19.838Z,3.49
2023-01-24T02:16:48.998Z,3.51
2023-01-24T02:19:37.115Z,3.52
2023-01-24T02:22:14.335Z,3.51
2023-01-24T02:24:47.762Z,3.51
2023-01-24T02:27:16.975Z,3.47
2023-01-24T02:29:45.012Z,3.46
2023-01-24T02:32:13.966Z,3.45
2023-01-24T02:34:41.757Z,3.46
2023-01-24T02:37:14.596Z,3.49
2023-01-24T02:39:47.661Z,3.45
2023-01-24T02:42:21.925Z,3.45
2023-01-24T02:45:00.194Z,3.45
2023-01-24T02:47:34.419Z,3.44
2023-01-24T02:50:02.346Z,3.42
2023-01-24T02:52:48.073Z,3.40
2023-01-24T02:55:16.579Z,3.37
2023-01-24T02:58:02.368Z,3.34
2023-01-24T03:00:30.256Z,3.34
2023-01-24T03:03:00.087Z,3.35
2023-01-24T03:05:40.550Z,3.34
2023-01-24T03:08:15.014Z,3.34
2023-01-24T03:10:42.862Z,3.33
2023-01-24T03:13:29.523Z,3.31
2023-01-24T03:16:15.072Z,3.29
2023-01-24T03:19:00.843Z,3.26
2023-01-24T03:21:46.117Z,3.27
2023-01-24T03:24:31.982Z,3.25
2023-01-24T03:27:17.099Z,3.24
2023-01-24T03:30:03.399Z,3.24
2023-01-24T03:32:49.153Z,3.24
2023-01-24T03:35:18.143Z,3.26
2023-01-24T03:38:03.552Z,3.21
2023-01-24T03:40:33.322Z,3.23
2023-01-24T03:43:01.274Z,3.20
2023-01-24T03:45:36.948Z,3.18
2023-01-24T03:48:13.720Z,3.18
2023-01-24T03:51:00.902Z,3.16
2023-01-24T03:53:33.220Z,3.13
2023-01-24T03:56:02.724Z,3.10
2023-01-24T03:58:36.842Z,3.12
2023-01-24T04:01:09.531Z,3.10
2023-01-24T04:03:57.658Z,3.11
2023-01-24T04:06:25.607Z,3.10
2023-01-24T04:08:54.433Z,3.09
2023-01-24T04:11:24.304Z,3.10
2023-01-24T04:13:56.683Z,3.09
2023-01-24T04:16:26.333Z,3.08
2023-01-24T04:19:15.106Z,3.11
2023-01-24T04:21:43.098Z,3.11
2023-01-24T04:24:12.677Z,3.07
2023-01-24T04:26:43.757Z,3.06
2023-01-24T04:29:16.973Z,3.05
2023-01-24T04:31:48.653Z,3.06
2023-01-24T04:34:26.461Z,3.08
2023-01-24T04:36:54.336Z,3.09
2023-01-24T04:39:22.215Z,3.09
2023-01-24T04:42:03.226Z,3.06
2023-01-24T04:44:31.364Z,3.06
2023-01-24T04:47:01.348Z,3.04
2023-01-24T04:49:29.313Z,3.03
2023-01-24T04:51:57.274Z,2.99
2023-01-24T04:54:31.673Z,2.96
2023-01-24T04:56:59.632Z,2.97
2023-01-24T04:59:27.442Z,2.95
2023-01-24T05:01:55.307Z,2.95
2023-01-24T05:04:44.915Z,2.93
2023-01-24T05:07:13.605Z,2.95
2023-01-24T05:09:44.065Z,2.97
2023-01-24T05:12:13.290Z,2.97
2023-01-24T05:14:41.792Z,2.97
2023-01-24T05:17:11.024Z,2.95
2023-01-24T05:19:38.887Z,2.95
2023-01-24T05:22:09.363Z,2.91
2023-01-24T05:24:42.332Z,2.90
2023-01-24T05:27:10.306Z,2.88
2023-01-24T05:29:42.080Z,2.87
2023-01-24T05:32:09.941Z,2.85
2023-01-24T05:34:38.264Z,2.85
2023-01-24T05:37:09.839Z,2.85
2023-01-24T05:39:40.780Z,2.86
2023-01-24T05:42:09.057Z,2.85
2023-01-24T05:44:43.867Z,2.81
2023-01-24T05:47:11.681Z,2.83
2023-01-24T05:49:41.862Z,2.81
2023-01-24T05:52:12.680Z,2.80
2023-01-24T05:54:49.208Z,2.74
2023-01-24T05:57:27.660Z,2.73
2023-01-24T06:00:11.844Z,2.72
2023-01-24T06:03:04.208Z,2.72
2023-01-24T06:05:32.189Z,2.74
2023-01-24T06:08:01.376Z,2.73
2023-01-24T06:10:30.001Z,2.72
2023-01-24T06:13:05.358Z,2.70
2023-01-24T06:15:33.373Z,2.73
2023-01-24T06:18:02.138Z,2.74
2023-01-24T06:20:30.594Z,2.71
2023-01-24T06:23:05.154Z,2.70
2023-01-24T06:25:36.113Z,2.71
2023-01-24T06:28:04.499Z,2.68
2023-01-24T06:30:32.427Z,2.66
2023-01-24T06:33:19.569Z,2.64
2023-01-24T06:36:09.184Z,2.63
2023-01-24T06:38:39.095Z,2.61
2023-01-24T06:41:16.324Z,2.60
2023-01-24T06:43:45.538Z,2.62
2023-01-24T06:46:14.654Z,2.62
2023-01-24T06:48:44.680Z,2.64
2023-01-24T06:51:14.501Z,2.66
2023-01-24T06:53:43.725Z,2.66
2023-01-24T06:56:11.589Z,2.67
2023-01-24T06:58:39.478Z,2.68
2023-01-24T07:01:07.660Z,2.68
2023-01-24T07:03:35.902Z,2.69
2023-01-24T07:06:03.801Z,2.68
2023-01-24T07:08:31.566Z,2.66
2023-01-24T07:11:00.807Z,2.68
2023-01-24T07:13:28.636Z,2.70
2023-01-24T07:15:56.448Z,2.70
2023-01-24T07:18:24.797Z,2.69
2023-01-24T07:20:53.149Z,2.68
2023-01-24T07:23:22.690Z,2.61
2023-01-24T07:25:51.142Z,2.64
2023-01-24T07:28:20.547Z,2.58
2023-01-24T07:30:49.003Z,2.61
2023-01-24T07:33:16.960Z,2.60
2023-01-24T07:35:45.564Z,2.59
2023-01-24T07:38:13.914Z,2.58
2023-01-24T07:40:42.828Z,2.57
2023-01-24T07:43:10.653Z,2.55
2023-01-24T07:45:40.105Z,2.53
2023-01-24T07:48:09.199Z,2.52
2023-01-24T07:50:37.104Z,2.48
2023-01-24T07:53:05.258Z,2.48
2023-01-24T07:55:33.131Z,2.46
2023-01-24T07:58:02.549Z,2.43
2023-01-24T08:00:30.970Z,2.42
2023-01-24T08:03:00.097Z,2.43
2023-01-24T08:05:28.032Z,2.42
2023-01-24T08:07:56.830Z,2.42
2023-01-24T08:10:24.998Z,2.42
2023-01-24T08:12:53.000Z,2.43
2023-01-24T08:15:20.787Z,2.42
2023-01-24T08:17:48.633Z,2.41
2023-01-24T08:20:18.291Z,2.41
2023-01-24T08:22:57.325Z,2.40
2023-01-24T08:25:26.244Z,2.42
2023-01-24T08:27:55.064Z,2.43
2023-01-24T08:30:24.364Z,2.39
2023-01-24T08:33:01.052Z,2.40
2023-01-24T08:35:30.709Z,2.40
2023-01-24T08:37:58.735Z,2.42
2023-01-24T08:40:28.499Z,2.44
2023-01-24T08:43:01.398Z,2.45
2023-01-24T08:45:29.649Z,2.46
2023-01-24T08:47:57.646Z,2.48
2023-01-24T08:50:25.518Z,2.49
2023-01-24T08:52:57.770Z,2.52
2023-01-24T08:55:26.421Z,2.56
2023-01-24T08:57:54.255Z,2.56
2023-01-24T09:00:22.492Z,2.56
2023-01-24T09:02:52.322Z,2.59
2023-01-24T09:05:20.347Z,2.62
2023-01-24T09:07:48.658Z,2.62
2023-01-24T09:10:18.220Z,2.61
2023-01-24T09:12:46.101Z,2.63
2023-01-24T09:15:13.959Z,2.66
2023-01-24T09:17:41.750Z,2.65
2023-01-24T09:20:11.414Z,2.68
2023-01-24T09:22:39.254Z,2.69
2023-01-24T09:25:09.238Z,2.72
2023-01-24T09:27:39.174Z,2.74
2023-01-24T09:30:07.993Z,2.75
2023-01-24T09:32:36.764Z,2.77
2023-01-24T09:35:04.984Z,2.76
2023-01-24T09:37:32.778Z,2.75
2023-01-24T09:40:00.815Z,2.75
2023-01-24T09:42:40.023Z,2.77
2023-01-24T09:45:19.523Z,2.80
2023-01-24T09:47:52.220Z,2.84
2023-01-24T09:50:23.596Z,2.88
2023-01-24T09:52:55.262Z,2.86
2023-01-24T09:55:27.646Z,2.89
2023-01-24T09:57:58.714Z,2.92
2023-01-24T10:00:30.251Z,2.92
2023-01-24T10:03:00.059Z,2.94
2023-01-24T10:05:34.629Z,2.94
2023-01-24T10:08:12.861Z,2.94
2023-01-24T10:10:47.884Z,2.91
2023-01-24T10:13:45.428Z,2.92
2023-01-24T10:16:34.854Z,2.96
2023-01-24T10:19:13.717Z,2.96
2023-01-24T10:22:15.779Z,2.97
2023-01-24T10:24:53.299Z,2.98
2023-01-24T10:27:38.586Z,2.96
2023-01-24T10:30:25.545Z,3.00
2023-01-24T10:33:00.345Z,3.01
2023-01-24T10:35:34.641Z,3.01
2023-01-24T10:38:07.828Z,2.96
2023-01-24T10:40:35.627Z,2.95
2023-01-24T10:43:07.154Z,2.91
2023-01-24T10:45:49.620Z,2.92
2023-01-24T10:48:35.401Z,2.93
2023-01-24T10:51:12.921Z,2.94
2023-01-24T10:53:40.731Z,2.95
2023-01-24T10:56:09.275Z,2.96
2023-01-24T10:58:39.751Z,2.94
2023-01-24T11:01:09.095Z,2.96
2023-01-24T11:03:42.000Z,2.98
2023-01-24T11:06:26.859Z,3.01
2023-01-24T11:08:57.119Z,3.03
2023-01-24T11:11:27.175Z,3.03
2023-01-24T11:13:57.698Z,3.04
2023-01-24T11:16:30.347Z,3.04
2023-01-24T11:19:01.657Z,3.04
2023-01-24T11:21:33.377Z,3.03
2023-01-24T11:24:09.233Z,3.00
2023-01-24T11:26:39.752Z,3.02
2023-01-24T11:29:17.774Z,3.04
2023-01-24T11:31:47.321Z,3.05
2023-01-24T11:34:30.213Z,3.07
2023-01-24T11:37:13.091Z,3.06
2023-01-24T11:39:49.457Z,3.06
2023-01-24T11:42:25.598Z,3.11
2023-01-24T11:45:06.027Z,3.11
2023-01-24T11:47:38.624Z,3.15
2023-01-24T11:50:34.334Z,3.16
2023-01-24T11:53:15.870Z,3.21
2023-01-24T11:55:53.549Z,3.21
2023-01-24T11:58:39.937Z,3.23
2023-01-24T12:01:16.801Z,3.27
2023-01-24T12:04:15.777Z,3.30
2023-01-24T12:06:52.280Z,3.28
2023-01-24T12:09:23.393Z,3.26
2023-01-24T12:12:04.839Z,3.28
2023-01-24T12:15:06.909Z,3.31
2023-01-24T12:17:51.016Z,3.36
2023-01-24T12:20:32.691Z,3.39
2023-01-24T12:23:04.977Z,3.43
2023-01-24T12:25:36.365Z,3.45
2023-01-24T12:28:08.108Z,3.44
2023-01-24T12:30:41.764Z,3.45
2023-01-24T12:33:18.062Z,3.44
2023-01-24T12:35:49.605Z,3.46
2023-01-24T12:38:28.598Z,3.48
2023-01-24T12:41:08.167Z,3.52
2023-01-24T12:43:50.637Z,3.54
2023-01-24T12:46:27.355Z,3.49
2023-01-24T12:49:14.176Z,3.53
2023-01-24T12:51:48.705Z,3.55
2023-01-24T12:54:24.627Z,3.56
2023-01-24T12:56:59.288Z,3.55
2023-01-24T12:59:29.271Z,3.59
2023-01-24T13:02:19.922Z,3.61
2023-01-24T13:04:59.316Z,3.60
2023-01-24T13:07:41.122Z,3.63
2023-01-24T13:10:19.389Z,3.65
2023-01-24T13:12:48.728Z,3.58
2023-01-24T13:15:21.214Z,3.60
2023-01-24T13:18:09.756Z,3.60
2023-01-24T13:20:53.570Z,3.62
2023-01-24T13:23:49.136Z,3.59
2023-01-24T13:26:40.922Z,3.58
2023-01-24T13:29:21.908Z,3.60
2023-01-24T13:31:59.778Z,3.61
2023-01-24T13:34:33.069Z,3.62
2023-01-24T13:37:02.203Z,3.60
2023-01-24T13:39:35.346Z,3.59
2023-01-24T13:42:08.101Z,3.60
2023-01-24T13:44:36.957Z,3.63
2023-01-24T13:47:20.654Z,3.63
2023-01-24T13:50:12.057Z,3.59
2023-01-24T13:52:42.207Z,3.59
2023-01-24T13:55:59.078Z,3.56
2023-01-24T13:58:29.868Z,3.55
2023-01-24T14:01:01.053Z,3.54
2023-01-24T14:03:33.501Z,3.49
2023-01-24T14:06:14.418Z,3.49
2023-01-24T14:09:02.847Z,3.46
2023-01-24T14:11:39.246Z,3.45
2023-01-24T14:14:59.543Z,3.46
2023-01-24T14:17:49.401Z,3.41
2023-01-24T14:20:31.534Z,3.39
2023-01-24T14:23:03.475Z,3.35
2023-01-24T14:25:44.465Z,3.33
2023-01-24T14:28:20.748Z,3.34
2023-01-24T14:30:55.154Z,3.33
2023-01-24T14:33:39.622Z,3.35
2023-01-24T14:36:15.263Z,3.36
2023-01-24T14:38:43.069Z,3.33
2023-01-24T14:41:21.399Z,3.32
2023-01-24T14:43:49.712Z,3.35
2023-01-24T14:46:26.245Z,3.30
2023-01-24T14:48:54.178Z,3.34
2023-01-24T14:51:25.926Z,3.34
2023-01-24T14:53:55.840Z,3.34
2023-01-24T14:56:23.789Z,3.35
2023-01-24T14:58:53.929Z,3.37
2023-01-24T15:01:28.601Z,3.32
2023-01-24T15:03:57.696Z,3.33
2023-01-24T15:06:28.081Z,3.33
2023-01-24T15:08:57.156Z,3.33
2023-01-24T15:11:30.362Z,3.35
2023-01-24T15:14:00.896Z,3.35
2023-01-24T15:16:36.756Z,3.32
2023-01-24T15:19:07.746Z,3.25
2023-01-24T15:21:40.400Z,3.23
2023-01-24T15:24:21.166Z,3.18
2023-01-24T15:26:48.969Z,3.16
2023-01-24T15:29:39.625Z,3.10
2023-01-24T15:32:43.086Z,3.09
2023-01-24T15:35:32.918Z,3.13
2023-01-24T15:38:13.226Z,3.12
2023-01-24T15:40:49.187Z,3.14
2023-01-24T15:43:38.933Z,3.16
2023-01-24T15:46:25.322Z,3.14
2023-01-24T15:49:03.121Z,3.12
2023-01-24T15:51:36.497Z,3.13
2023-01-24T15:54:11.560Z,3.13
2023-01-24T15:56:51.813Z,3.12
2023-01-24T15:59:23.020Z,3.12
2023-01-24T16:01:51.166Z,3.08
2023-01-24T16:04:22.238Z,3.08
2023-01-24T16:06:50.377Z,3.09
2023-01-24T16:09:18.420Z,3.10
2023-01-24T16:11:48.589Z,3.11
2023-01-24T16:14:21.078Z,3.11
2023-01-24T16:16:49.701Z,3.07
2023-01-24T16:19:20.780Z,3.06
2023-01-24T16:21:48.658Z,3.04
2023-01-24T16:24:16.676Z,3.05
2023-01-24T16:26:48.509Z,3.02
2023-01-24T16:29:19.356Z,3.03
2023-01-24T16:31:48.068Z,3.02
2023-01-24T16:34:16.005Z,3.02
2023-01-24T16:36:45.167Z,2.99
2023-01-24T16:39:18.231Z,2.89
2023-01-24T16:41:46.665Z,2.84
2023-01-24T16:44:15.101Z,2.77
2023-01-24T16:46:49.151Z,2.79
2023-01-24T16:49:16.987Z,2.78
2023-01-24T16:51:47.242Z,2.70
2023-01-24T16:54:16.243Z,2.65
2023-01-24T16:56:45.958Z,2.68
2023-01-24T16:59:13.921Z,2.64
2023-01-24T17:01:42.648Z,2.64
2023-01-24T17:04:13.977Z,2.67
2023-01-24T17:06:41.777Z,2.67
2023-01-24T17:09:11.313Z,2.67
2023-01-24T17:11:39.107Z,2.68
2023-01-24T17:14:06.922Z,2.71
2023-01-24T17:16:34.703Z,2.71
2023-01-24T17:19:03.181Z,2.71
2023-01-24T17:21:30.959Z,2.70
2023-01-24T17:23:58.833Z,2.69
2023-01-24T17:26:28.027Z,2.70
2023-01-24T17:28:55.813Z,2.64
2023-01-24T17:31:23.948Z,2.66
2023-01-24T17:33:51.988Z,2.65
2023-01-24T17:36:19.808Z,2.63
2023-01-24T17:38:48.083Z,2.61
2023-01-24T17:41:17.398Z,2.58
2023-01-24T17:43:52.911Z,2.51
2023-01-24T17:46:21.634Z,2.53
2023-01-24T17:48:49.581Z,2.51
2023-01-24T17:51:19.304Z,2.52
2023-01-24T17:53:48.157Z,2.52
2023-01-24T17:56:17.755Z,2.53
2023-01-24T17:58:46.969Z,2.54
2023-01-24T18:01:15.822Z,2.54
2023-01-24T18:03:44.460Z,2.53
2023-01-24T18:06:12.056Z,2.51
2023-01-24T18:08:40.352Z,2.56
2023-01-24T18:11:09.951Z,2.52
2023-01-24T18:13:38.600Z,2.47
2023-01-24T18:16:09.668Z,2.48
2023-01-24T18:18:38.753Z,2.48
2023-01-24T18:21:10.712Z,2.44
2023-01-24T18:23:39.103Z,2.43
2023-01-24T18:26:08.148Z,2.43
2023-01-24T18:28:37.285Z,2.42
2023-01-24T18:31:09.699Z,2.40
2023-01-24T18:33:37.860Z,2.35
2023-01-24T18:36:09.960Z,2.37
2023-01-24T18:38:38.121Z,2.36
2023-01-24T18:41:06.224Z,2.31
2023-01-24T18:43:34.212Z,2.31
2023-01-24T18:46:06.621Z,2.28
2023-01-24T18:48:36.713Z,2.22
2023-01-24T18:51:08.719Z,2.21
2023-01-24T18:53:36.663Z,2.22
2023-01-24T18:56:06.839Z,2.24
2023-01-24T18:58:36.913Z,2.25
2023-01-24T19:01:11.928Z,2.22
2023-01-24T19:03:41.487Z,2.20
2023-01-24T19:06:10.518Z,2.17
2023-01-24T19:08:52.177Z,2.14
2023-01-24T19:11:28.127Z,2.16
2023-01-24T19:13:56.502Z,2.16
2023-01-24T19:16:24.483Z,2.14
2023-01-24T19:18:53.787Z,2.15
2023-01-24T19:21:21.690Z,2.18
2023-01-24T19:23:50.949Z,2.19
2023-01-24T19:26:19.788Z,2.20
2023-01-24T19:28:47.846Z,2.20
2023-01-24T19:31:15.835Z,2.21
2023-01-24T19:33:43.687Z,2.23
2023-01-24T19:36:13.021Z,2.23
2023-01-24T19:38:40.814Z,2.25
2023-01-24T19:41:09.660Z,2.28
2023-01-24T19:43:40.911Z,2.27
2023-01-24T19:46:12.248Z,2.28
2023-01-24T19:48:40.855Z,2.27
2023-01-24T19:51:11.436Z,2.26
2023-01-24T19:53:40.708Z,2.28
2023-01-24T19:56:11.148Z,2.31
2023-01-24T19:58:39.481Z,2.31
2023-01-24T20:01:08.879Z,2.30
2023-01-24T20:03:38.421Z,2.32
2023-01-24T20:06:08.585Z,2.31
2023-01-24T20:08:36.846Z,2.25
2023-01-24T20:11:08.534Z,2.27
2023-01-24T20:13:36.672Z,2.27
2023-01-24T20:16:05.809Z,2.28
2023-01-24T20:18:33.977Z,2.27
2023-01-24T20:21:01.829Z,2.24
2023-01-24T20:23:29.637Z,2.19
2023-01-24T20:26:02.740Z,2.11
2023-01-24T20:28:32.121Z,2.04
2023-01-24T20:31:05.238Z,1.99
2023-01-24T20:33:35.438Z,2.01
2023-01-24T20:36:04.956Z,2.04
2023-01-24T20:38:37.399Z,2.06
2023-01-24T20:41:09.383Z,2.09
2023-01-24T20:43:39.187Z,2.07
2023-01-24T20:46:09.584Z,2.06
2023-01-24T20:48:38.374Z,2.02
2023-01-24T20:51:07.989Z,2.03
2023-01-24T20:53:36.092Z,2.08
2023-01-24T20:56:05.907Z,2.06
2023-01-24T20:58:34.074Z,2.08
2023-01-24T21:01:08.112Z,2.07
2023-01-24T21:03:36.065Z,2.07
2023-01-24T21:06:05.474Z,2.03
2023-01-24T21:08:34.169Z,2.05
2023-01-24T21:11:02.639Z,2.08
2023-01-24T21:13:40.724Z,2.04
2023-01-24T21:16:12.400Z,2.04
2023-01-24T21:18:40.550Z,2.07
2023-01-24T21:21:09.098Z,2.05
2023-01-24T21:23:37.365Z,2.05
2023-01-24T21:26:07.303Z,2.04
2023-01-24T21:28:36.033Z,2.01
2023-01-24T21:31:06.303Z,2.02
2023-01-24T21:33:35.780Z,2.02
2023-01-24T21:36:05.374Z,2.01
2023-01-24T21:38:34.236Z,2.04
2023-01-24T21:41:20.496Z,2.03
2023-01-24T21:43:48.632Z,2.02
2023-01-24T21:46:16.944Z,2.00
2023-01-24T21:49:03.911Z,2.01
2023-01-24T21:51:34.562Z,2.02
2023-01-24T21:54:06.805Z,2.05
2023-01-24T21:56:54.453Z,2.03
2023-01-24T21:59:23.953Z,1.96
2023-01-24T22:01:54.463Z,1.95
2023-01-24T22:04:24.904Z,1.95
2023-01-24T22:06:53.048Z,1.95
2023-01-24T22:09:21.030Z,1.95
2023-01-24T22:11:49.667Z,1.97
2023-01-24T22:14:20.082Z,1.97
2023-01-24T22:16:49.730Z,1.97
2023-01-24T22:19:19.448Z,1.99
2023-01-24T22:22:22.263Z,2.00
2023-01-24T22:25:01.370Z,1.97
2023-01-24T22:27:29.697Z,1.93
2023-01-24T22:29:58.012Z,1.90
2023-01-24T22:32:26.430Z,1.85
2023-01-24T22:34:56.367Z,1.82
2023-01-24T22:37:29.641Z,1.83
2023-01-24T22:39:58.017Z,1.86
2023-01-24T22:42:26.048Z,1.86
2023-01-24T22:44:53.974Z,1.86
2023-01-24T22:47:21.819Z,1.86
2023-01-24T22:49:49.974Z,1.87
2023-01-24T22:52:17.840Z,1.84
2023-01-24T22:54:46.966Z,1.85
2023-01-24T22:57:14.752Z,1.79
2023-01-24T22:59:42.544Z,1.76
2023-01-24T23:02:10.365Z,1.72
2023-01-24T23:04:39.807Z,1.71
2023-01-24T23:07:07.794Z,1.73
2023-01-24T23:09:35.572Z,1.75
2023-01-24T23:12:25.115Z,1.73
2023-01-24T23:15:10.267Z,1.68
2023-01-24T23:17:40.990Z,1.71
2023-01-24T23:20:27.697Z,1.74
2023-01-24T23:22:55.485Z,1.73
2023-01-24T23:25:25.717Z,1.66
2023-01-24T23:27:55.565Z,1.57
2023-01-24T23:30:38.929Z,1.55
2023-01-24T23:33:23.532Z,1.51
2023-01-24T23:35:51.370Z,1.52
2023-01-24T23:38:19.114Z,1.50
2023-01-24T23:40:46.891Z,1.51
2023-01-24T23:43:16.027Z,1.47
2023-01-24T23:45:44.217Z,1.46
2023-01-24T23:48:12.776Z,1.47
2023-01-24T23:50:40.629Z,1.47
2023-01-24T23:53:08.579Z,1.44
2023-01-24T23:55:36.411Z,1.50
2023-01-24T23:58:04.925Z,1.51
